sensor_id;sensor_type;location;lat;lon;timestamp;P1;durP1;ratioP1;P2;durP2;ratioP2
20230;SDS011;10274;49.022;9.338;2023-03-01T00:02:15;6.10;;;4.80;;
20230;SDS011;10274;49.022;9.338;2023-03-01T00:04:42;6.43;;;4.50;;
20230;SDS011;10274;49.022;9.338;2023-03-01T00:07:10;6.87;;;4.70;;
20230;SDS011;10274;49.022;9.338;2023-03-01T00:09:36;6.20;;;4.47;;
20230;SDS011;10274;49.022;9.338;2023-03-01T00:12:05;7.53;;;5.30;;
20230;SDS011;10274;49.022;9.338;2023-03-01T00:14:32;7.77;;;5.10;;
20230;SDS011;10274;49.022;9.338;2023-03-01T00:16:59;7.67;;;5.30;;
20230;SDS011;10274;49.022;9.338;2023-03-01T00:19:26;8.13;;;4.73;;
20230;SDS011;10274;49.022;9.338;2023-03-01T00:21:53;7.33;;;4.70;;
20230;SDS011;10274;49.022;9.338;2023-03-01T00:24:21;6.60;;;4.30;;
20230;SDS011;10274;49.022;9.338;2023-03-01T00:26:48;6.97;;;5.30;;
20230;SDS011;10274;49.022;9.338;2023-03-01T00:29:18;6.87;;;5.40;;
20230;SDS011;10274;49.022;9.338;2023-03-01T00:31:45;8.50;;;5.10;;
20230;SDS011;10274;49.022;9.338;2023-03-01T00:34:11;7.00;;;4.83;;
20230;SDS011;10274;49.022;9.338;2023-03-01T00:36:38;7.50;;;4.80;;
20230;SDS011;10274;49.022;9.338;2023-03-01T00:39:07;7.30;;;5.33;;
20230;SDS011;10274;49.022;9.338;2023-03-01T00:41:37;8.17;;;6.23;;
20230;SDS011;10274;49.022;9.338;2023-03-01T00:44:05;5.57;;;4.43;;
20230;SDS011;10274;49.022;9.338;2023-03-01T00:46:31;7.33;;;4.50;;
20230;SDS011;10274;49.022;9.338;2023-03-01T00:48:58;7.97;;;4.60;;
20230;SDS011;10274;49.022;9.338;2023-03-01T00:51:27;9.40;;;5.60;;
20230;SDS011;10274;49.022;9.338;2023-03-01T00:53:55;8.97;;;4.93;;
20230;SDS011;10274;49.022;9.338;2023-03-01T00:56:23;9.00;;;5.70;;
20230;SDS011;10274;49.022;9.338;2023-03-01T00:58:52;6.97;;;4.97;;
20230;SDS011;10274;49.022;9.338;2023-03-01T01:01:19;8.53;;;5.03;;
20230;SDS011;10274;49.022;9.338;2023-03-01T01:03:49;6.40;;;4.93;;
20230;SDS011;10274;49.022;9.338;2023-03-01T01:06:17;7.30;;;5.00;;
20230;SDS011;10274;49.022;9.338;2023-03-01T01:08:46;9.30;;;5.70;;
20230;SDS011;10274;49.022;9.338;2023-03-01T01:11:13;8.33;;;5.93;;
20230;SDS011;10274;49.022;9.338;2023-03-01T01:13:40;7.83;;;5.70;;
20230;SDS011;10274;49.022;9.338;2023-03-01T01:16:09;7.73;;;5.63;;
20230;SDS011;10274;49.022;9.338;2023-03-01T01:18:35;7.93;;;5.67;;
20230;SDS011;10274;49.022;9.338;2023-03-01T01:21:03;7.10;;;4.80;;
20230;SDS011;10274;49.022;9.338;2023-03-01T01:23:31;6.83;;;5.20;;
20230;SDS011;10274;49.022;9.338;2023-03-01T01:26:02;9.53;;;5.80;;
20230;SDS011;10274;49.022;9.338;2023-03-01T01:28:30;9.47;;;6.03;;
20230;SDS011;10274;49.022;9.338;2023-03-01T01:30:57;7.57;;;5.70;;
20230;SDS011;10274;49.022;9.338;2023-03-01T01:33:25;7.97;;;5.40;;
20230;SDS011;10274;49.022;9.338;2023-03-01T01:35:52;10.33;;;5.50;;
20230;SDS011;10274;49.022;9.338;2023-03-01T01:38:18;8.70;;;5.57;;
20230;SDS011;10274;49.022;9.338;2023-03-01T01:40:46;7.53;;;5.30;;
20230;SDS011;10274;49.022;9.338;2023-03-01T01:43:16;8.90;;;5.57;;
20230;SDS011;10274;49.022;9.338;2023-03-01T01:45:46;13.00;;;6.23;;
20230;SDS011;10274;49.022;9.338;2023-03-01T01:48:14;9.20;;;6.03;;
20230;SDS011;10274;49.022;9.338;2023-03-01T01:50:46;8.60;;;5.60;;
20230;SDS011;10274;49.022;9.338;2023-03-01T01:53:20;9.17;;;5.47;;
20230;SDS011;10274;49.022;9.338;2023-03-01T01:55:48;7.07;;;4.97;;
20230;SDS011;10274;49.022;9.338;2023-03-01T01:58:19;8.43;;;5.37;;
20230;SDS011;10274;49.022;9.338;2023-03-01T02:00:47;6.77;;;5.17;;
20230;SDS011;10274;49.022;9.338;2023-03-01T02:03:15;9.60;;;5.60;;
20230;SDS011;10274;49.022;9.338;2023-03-01T02:05:46;11.33;;;5.93;;
20230;SDS011;10274;49.022;9.338;2023-03-01T02:08:18;10.37;;;6.60;;
20230;SDS011;10274;49.022;9.338;2023-03-01T02:10:46;8.90;;;5.57;;
20230;SDS011;10274;49.022;9.338;2023-03-01T02:13:15;8.80;;;5.23;;
20230;SDS011;10274;49.022;9.338;2023-03-01T02:15:42;7.83;;;5.10;;
20230;SDS011;10274;49.022;9.338;2023-03-01T02:18:10;8.40;;;5.90;;
20230;SDS011;10274;49.022;9.338;2023-03-01T02:20:40;7.77;;;5.20;;
20230;SDS011;10274;49.022;9.338;2023-03-01T02:23:17;7.40;;;5.73;;
20230;SDS011;10274;49.022;9.338;2023-03-01T02:25:46;9.63;;;6.20;;
20230;SDS011;10274;49.022;9.338;2023-03-01T02:28:22;8.20;;;5.53;;
20230;SDS011;10274;49.022;9.338;2023-03-01T02:30:51;7.93;;;6.10;;
20230;SDS011;10274;49.022;9.338;2023-03-01T02:33:37;8.93;;;5.77;;
20230;SDS011;10274;49.022;9.338;2023-03-01T02:36:06;6.60;;;4.30;;
20230;SDS011;10274;49.022;9.338;2023-03-01T02:38:36;8.77;;;5.37;;
20230;SDS011;10274;49.022;9.338;2023-03-01T02:41:03;9.13;;;5.70;;
20230;SDS011;10274;49.022;9.338;2023-03-01T02:43:33;9.47;;;6.23;;
20230;SDS011;10274;49.022;9.338;2023-03-01T02:46:03;8.03;;;5.43;;
20230;SDS011;10274;49.022;9.338;2023-03-01T02:48:39;7.57;;;5.43;;
20230;SDS011;10274;49.022;9.338;2023-03-01T02:51:11;8.47;;;5.53;;
20230;SDS011;10274;49.022;9.338;2023-03-01T02:53:58;8.50;;;6.03;;
20230;SDS011;10274;49.022;9.338;2023-03-01T02:56:34;11.20;;;5.67;;
20230;SDS011;10274;49.022;9.338;2023-03-01T02:59:02;8.30;;;5.60;;
20230;SDS011;10274;49.022;9.338;2023-03-01T03:01:30;8.27;;;5.70;;
20230;SDS011;10274;49.022;9.338;2023-03-01T03:04:02;8.77;;;5.53;;
20230;SDS011;10274;49.022;9.338;2023-03-01T03:06:30;7.53;;;4.83;;
20230;SDS011;10274;49.022;9.338;2023-03-01T03:08:57;8.97;;;5.60;;
20230;SDS011;10274;49.022;9.338;2023-03-01T03:11:23;8.53;;;5.43;;
20230;SDS011;10274;49.022;9.338;2023-03-01T03:13:50;8.17;;;4.97;;
20230;SDS011;10274;49.022;9.338;2023-03-01T03:16:18;8.83;;;6.13;;
20230;SDS011;10274;49.022;9.338;2023-03-01T03:18:45;7.00;;;5.10;;
20230;SDS011;10274;49.022;9.338;2023-03-01T03:21:12;8.50;;;5.10;;
20230;SDS011;10274;49.022;9.338;2023-03-01T03:23:39;8.43;;;5.40;;
20230;SDS011;10274;49.022;9.338;2023-03-01T03:26:06;8.33;;;5.63;;
20230;SDS011;10274;49.022;9.338;2023-03-01T03:28:33;9.37;;;5.87;;
20230;SDS011;10274;49.022;9.338;2023-03-01T03:31:00;7.40;;;5.33;;
20230;SDS011;10274;49.022;9.338;2023-03-01T03:33:30;9.73;;;5.30;;
20230;SDS011;10274;49.022;9.338;2023-03-01T03:35:57;8.00;;;5.03;;
20230;SDS011;10274;49.022;9.338;2023-03-01T03:38:24;8.50;;;5.70;;
20230;SDS011;10274;49.022;9.338;2023-03-01T03:40:54;7.80;;;5.37;;
20230;SDS011;10274;49.022;9.338;2023-03-01T03:43:27;12.00;;;5.53;;
20230;SDS011;10274;49.022;9.338;2023-03-01T03:45:55;8.73;;;5.70;;
20230;SDS011;10274;49.022;9.338;2023-03-01T03:48:22;7.50;;;5.40;;
20230;SDS011;10274;49.022;9.338;2023-03-01T03:50:51;6.00;;;4.87;;
20230;SDS011;10274;49.022;9.338;2023-03-01T03:53:20;6.97;;;5.57;;
20230;SDS011;10274;49.022;9.338;2023-03-01T03:55:47;8.83;;;5.90;;
20230;SDS011;10274;49.022;9.338;2023-03-01T03:58:16;8.63;;;5.60;;
20230;SDS011;10274;49.022;9.338;2023-03-01T04:00:46;7.60;;;4.87;;
20230;SDS011;10274;49.022;9.338;2023-03-01T04:03:14;6.67;;;5.10;;
20230;SDS011;10274;49.022;9.338;2023-03-01T04:05:44;8.13;;;5.20;;
20230;SDS011;10274;49.022;9.338;2023-03-01T04:08:13;9.87;;;5.70;;
20230;SDS011;10274;49.022;9.338;2023-03-01T04:10:40;10.27;;;5.40;;
20230;SDS011;10274;49.022;9.338;2023-03-01T04:13:10;9.13;;;6.30;;
20230;SDS011;10274;49.022;9.338;2023-03-01T04:15:38;7.57;;;5.80;;
20230;SDS011;10274;49.022;9.338;2023-03-01T04:18:05;8.13;;;5.63;;
20230;SDS011;10274;49.022;9.338;2023-03-01T04:20:33;8.87;;;5.53;;
20230;SDS011;10274;49.022;9.338;2023-03-01T04:23:01;8.23;;;5.40;;
20230;SDS011;10274;49.022;9.338;2023-03-01T04:25:36;9.80;;;5.80;;
20230;SDS011;10274;49.022;9.338;2023-03-01T04:28:04;8.43;;;5.37;;
20230;SDS011;10274;49.022;9.338;2023-03-01T04:30:31;10.90;;;6.53;;
20230;SDS011;10274;49.022;9.338;2023-03-01T04:33:01;9.93;;;6.83;;
20230;SDS011;10274;49.022;9.338;2023-03-01T04:35:29;9.80;;;5.40;;
20230;SDS011;10274;49.022;9.338;2023-03-01T04:37:56;9.37;;;5.70;;
20230;SDS011;10274;49.022;9.338;2023-03-01T04:40:23;9.50;;;6.03;;
20230;SDS011;10274;49.022;9.338;2023-03-01T04:42:52;9.37;;;5.87;;
20230;SDS011;10274;49.022;9.338;2023-03-01T04:45:19;9.50;;;6.00;;
20230;SDS011;10274;49.022;9.338;2023-03-01T04:47:46;9.70;;;6.23;;
20230;SDS011;10274;49.022;9.338;2023-03-01T04:50:13;10.37;;;6.00;;
20230;SDS011;10274;49.022;9.338;2023-03-01T04:52:42;10.90;;;6.27;;
20230;SDS011;10274;49.022;9.338;2023-03-01T04:55:10;8.53;;;5.83;;
20230;SDS011;10274;49.022;9.338;2023-03-01T04:57:37;10.07;;;6.00;;
20230;SDS011;10274;49.022;9.338;2023-03-01T05:00:07;8.00;;;5.77;;
20230;SDS011;10274;49.022;9.338;2023-03-01T05:02:46;8.47;;;6.10;;
20230;SDS011;10274;49.022;9.338;2023-03-01T05:05:18;7.83;;;6.00;;
20230;SDS011;10274;49.022;9.338;2023-03-01T05:07:45;9.20;;;5.53;;
20230;SDS011;10274;49.022;9.338;2023-03-01T05:10:12;9.00;;;5.53;;
20230;SDS011;10274;49.022;9.338;2023-03-01T05:12:39;8.03;;;5.33;;
20230;SDS011;10274;49.022;9.338;2023-03-01T05:15:07;8.10;;;5.63;;
20230;SDS011;10274;49.022;9.338;2023-03-01T05:17:35;8.23;;;5.27;;
20230;SDS011;10274;49.022;9.338;2023-03-01T05:20:01;9.70;;;5.93;;
20230;SDS011;10274;49.022;9.338;2023-03-01T05:22:32;9.83;;;5.90;;
20230;SDS011;10274;49.022;9.338;2023-03-01T05:24:58;7.40;;;5.53;;
20230;SDS011;10274;49.022;9.338;2023-03-01T05:27:25;8.73;;;5.40;;
20230;SDS011;10274;49.022;9.338;2023-03-01T05:29:52;8.57;;;5.83;;
20230;SDS011;10274;49.022;9.338;2023-03-01T05:32:20;9.97;;;5.87;;
20230;SDS011;10274;49.022;9.338;2023-03-01T05:34:46;10.17;;;6.30;;
20230;SDS011;10274;49.022;9.338;2023-03-01T05:37:13;6.77;;;4.80;;
20230;SDS011;10274;49.022;9.338;2023-03-01T05:39:40;8.13;;;5.87;;
20230;SDS011;10274;49.022;9.338;2023-03-01T05:42:09;8.83;;;5.10;;
20230;SDS011;10274;49.022;9.338;2023-03-01T05:44:37;8.60;;;5.90;;
20230;SDS011;10274;49.022;9.338;2023-03-01T05:47:04;8.93;;;6.57;;
20230;SDS011;10274;49.022;9.338;2023-03-01T05:49:32;7.13;;;5.27;;
20230;SDS011;10274;49.022;9.338;2023-03-01T05:51:59;11.53;;;6.90;;
20230;SDS011;10274;49.022;9.338;2023-03-01T05:54:26;12.10;;;7.13;;
20230;SDS011;10274;49.022;9.338;2023-03-01T05:56:53;10.87;;;6.43;;
20230;SDS011;10274;49.022;9.338;2023-03-01T05:59:19;9.70;;;5.77;;
20230;SDS011;10274;49.022;9.338;2023-03-01T06:01:46;7.93;;;6.30;;
20230;SDS011;10274;49.022;9.338;2023-03-01T06:04:13;9.13;;;5.93;;
20230;SDS011;10274;49.022;9.338;2023-03-01T06:06:41;8.37;;;6.23;;
20230;SDS011;10274;49.022;9.338;2023-03-01T06:09:07;9.30;;;6.20;;
20230;SDS011;10274;49.022;9.338;2023-03-01T06:11:35;10.53;;;5.50;;
20230;SDS011;10274;49.022;9.338;2023-03-01T06:14:02;9.13;;;5.67;;
20230;SDS011;10274;49.022;9.338;2023-03-01T06:16:31;9.93;;;6.83;;
20230;SDS011;10274;49.022;9.338;2023-03-01T06:18:57;9.00;;;5.77;;
20230;SDS011;10274;49.022;9.338;2023-03-01T06:21:24;10.67;;;6.40;;
20230;SDS011;10274;49.022;9.338;2023-03-01T06:23:52;10.97;;;6.27;;
20230;SDS011;10274;49.022;9.338;2023-03-01T06:26:19;11.03;;;7.17;;
20230;SDS011;10274;49.022;9.338;2023-03-01T06:28:46;9.40;;;6.17;;
20230;SDS011;10274;49.022;9.338;2023-03-01T06:31:12;11.33;;;5.83;;
20230;SDS011;10274;49.022;9.338;2023-03-01T06:33:39;11.07;;;7.20;;
20230;SDS011;10274;49.022;9.338;2023-03-01T06:36:06;9.47;;;6.20;;
20230;SDS011;10274;49.022;9.338;2023-03-01T06:38:34;9.53;;;6.13;;
20230;SDS011;10274;49.022;9.338;2023-03-01T06:41:03;11.60;;;6.27;;
20230;SDS011;10274;49.022;9.338;2023-03-01T06:43:30;10.10;;;6.43;;
20230;SDS011;10274;49.022;9.338;2023-03-01T06:45:56;10.00;;;6.87;;
20230;SDS011;10274;49.022;9.338;2023-03-01T06:48:23;8.77;;;5.97;;
20230;SDS011;10274;49.022;9.338;2023-03-01T06:50:50;9.80;;;5.93;;
20230;SDS011;10274;49.022;9.338;2023-03-01T06:53:16;9.73;;;6.53;;
20230;SDS011;10274;49.022;9.338;2023-03-01T06:55:43;10.50;;;6.13;;
20230;SDS011;10274;49.022;9.338;2023-03-01T06:58:11;9.33;;;6.07;;
20230;SDS011;10274;49.022;9.338;2023-03-01T07:00:38;9.50;;;6.00;;
20230;SDS011;10274;49.022;9.338;2023-03-01T07:03:05;11.97;;;7.03;;
20230;SDS011;10274;49.022;9.338;2023-03-01T07:05:33;10.03;;;6.30;;
20230;SDS011;10274;49.022;9.338;2023-03-01T07:07:59;8.63;;;6.00;;
20230;SDS011;10274;49.022;9.338;2023-03-01T07:10:26;9.40;;;6.03;;
20230;SDS011;10274;49.022;9.338;2023-03-01T07:12:54;11.23;;;6.07;;
20230;SDS011;10274;49.022;9.338;2023-03-01T07:15:23;9.93;;;6.30;;
20230;SDS011;10274;49.022;9.338;2023-03-01T07:17:50;10.80;;;6.57;;
20230;SDS011;10274;49.022;9.338;2023-03-01T07:20:17;11.33;;;6.87;;
20230;SDS011;10274;49.022;9.338;2023-03-01T07:22:47;8.97;;;5.47;;
20230;SDS011;10274;49.022;9.338;2023-03-01T07:25:14;8.03;;;5.77;;
20230;SDS011;10274;49.022;9.338;2023-03-01T07:27:40;8.70;;;5.57;;
20230;SDS011;10274;49.022;9.338;2023-03-01T07:30:08;10.60;;;5.97;;
20230;SDS011;10274;49.022;9.338;2023-03-01T07:32:36;7.90;;;6.27;;
20230;SDS011;10274;49.022;9.338;2023-03-01T07:35:03;9.13;;;6.23;;
20230;SDS011;10274;49.022;9.338;2023-03-01T07:37:31;8.37;;;5.63;;
20230;SDS011;10274;49.022;9.338;2023-03-01T07:39:57;9.30;;;5.77;;
20230;SDS011;10274;49.022;9.338;2023-03-01T07:42:24;7.07;;;4.93;;
20230;SDS011;10274;49.022;9.338;2023-03-01T07:44:50;8.07;;;5.47;;
20230;SDS011;10274;49.022;9.338;2023-03-01T07:47:17;10.33;;;5.37;;
20230;SDS011;10274;49.022;9.338;2023-03-01T07:49:45;6.67;;;4.87;;
20230;SDS011;10274;49.022;9.338;2023-03-01T07:52:12;9.33;;;5.37;;
20230;SDS011;10274;49.022;9.338;2023-03-01T07:54:39;6.83;;;4.57;;
20230;SDS011;10274;49.022;9.338;2023-03-01T07:57:08;7.87;;;5.27;;
20230;SDS011;10274;49.022;9.338;2023-03-01T07:59:36;7.50;;;5.20;;
20230;SDS011;10274;49.022;9.338;2023-03-01T08:02:02;7.33;;;4.90;;
20230;SDS011;10274;49.022;9.338;2023-03-01T08:04:29;6.20;;;4.87;;
20230;SDS011;10274;49.022;9.338;2023-03-01T08:06:57;6.53;;;4.60;;
20230;SDS011;10274;49.022;9.338;2023-03-01T08:09:24;7.67;;;4.47;;
20230;SDS011;10274;49.022;9.338;2023-03-01T08:11:51;9.00;;;5.67;;
20230;SDS011;10274;49.022;9.338;2023-03-01T08:14:19;6.07;;;4.27;;
20230;SDS011;10274;49.022;9.338;2023-03-01T08:16:48;6.40;;;4.63;;
20230;SDS011;10274;49.022;9.338;2023-03-01T08:19:15;7.17;;;4.97;;
20230;SDS011;10274;49.022;9.338;2023-03-01T08:21:42;6.73;;;4.57;;
20230;SDS011;10274;49.022;9.338;2023-03-01T08:24:10;8.23;;;4.50;;
20230;SDS011;10274;49.022;9.338;2023-03-01T08:26:36;6.80;;;4.47;;
20230;SDS011;10274;49.022;9.338;2023-03-01T08:29:03;7.53;;;4.00;;
20230;SDS011;10274;49.022;9.338;2023-03-01T08:31:31;8.60;;;4.60;;
20230;SDS011;10274;49.022;9.338;2023-03-01T08:34:00;8.07;;;5.07;;
20230;SDS011;10274;49.022;9.338;2023-03-01T08:36:29;5.77;;;4.13;;
20230;SDS011;10274;49.022;9.338;2023-03-01T08:38:57;5.93;;;4.20;;
20230;SDS011;10274;49.022;9.338;2023-03-01T08:41:25;5.23;;;3.73;;
20230;SDS011;10274;49.022;9.338;2023-03-01T08:43:52;5.40;;;3.83;;
20230;SDS011;10274;49.022;9.338;2023-03-01T08:46:23;6.93;;;4.37;;
20230;SDS011;10274;49.022;9.338;2023-03-01T08:48:50;7.13;;;4.87;;
20230;SDS011;10274;49.022;9.338;2023-03-01T08:51:17;11.87;;;3.73;;
20230;SDS011;10274;49.022;9.338;2023-03-01T08:53:45;6.23;;;4.13;;
20230;SDS011;10274;49.022;9.338;2023-03-01T08:56:12;7.97;;;4.23;;
20230;SDS011;10274;49.022;9.338;2023-03-01T08:58:42;5.00;;;3.83;;
20230;SDS011;10274;49.022;9.338;2023-03-01T09:01:10;6.27;;;3.87;;
20230;SDS011;10274;49.022;9.338;2023-03-01T09:03:38;6.83;;;4.50;;
20230;SDS011;10274;49.022;9.338;2023-03-01T09:06:05;4.00;;;3.37;;
20230;SDS011;10274;49.022;9.338;2023-03-01T09:08:33;6.20;;;4.10;;
20230;SDS011;10274;49.022;9.338;2023-03-01T09:11:01;3.80;;;3.40;;
20230;SDS011;10274;49.022;9.338;2023-03-01T09:13:27;6.17;;;3.77;;
20230;SDS011;10274;49.022;9.338;2023-03-01T09:15:57;6.60;;;4.50;;
20230;SDS011;10274;49.022;9.338;2023-03-01T09:18:24;4.63;;;3.63;;
20230;SDS011;10274;49.022;9.338;2023-03-01T09:20:51;5.80;;;4.07;;
20230;SDS011;10274;49.022;9.338;2023-03-01T09:23:19;5.63;;;3.87;;
20230;SDS011;10274;49.022;9.338;2023-03-01T09:25:46;6.03;;;4.10;;
20230;SDS011;10274;49.022;9.338;2023-03-01T09:28:13;5.17;;;4.10;;
20230;SDS011;10274;49.022;9.338;2023-03-01T09:30:40;6.83;;;4.07;;
20230;SDS011;10274;49.022;9.338;2023-03-01T09:33:08;5.37;;;4.00;;
20230;SDS011;10274;49.022;9.338;2023-03-01T09:35:39;4.97;;;3.37;;
20230;SDS011;10274;49.022;9.338;2023-03-01T09:38:11;6.00;;;4.10;;
20230;SDS011;10274;49.022;9.338;2023-03-01T09:40:41;6.73;;;4.00;;
20230;SDS011;10274;49.022;9.338;2023-03-01T09:43:12;9.10;;;5.17;;
20230;SDS011;10274;49.022;9.338;2023-03-01T09:45:46;5.57;;;3.77;;
20230;SDS011;10274;49.022;9.338;2023-03-01T09:48:18;5.83;;;4.17;;
20230;SDS011;10274;49.022;9.338;2023-03-01T09:50:48;4.87;;;3.70;;
20230;SDS011;10274;49.022;9.338;2023-03-01T09:53:16;6.17;;;4.97;;
20230;SDS011;10274;49.022;9.338;2023-03-01T09:55:46;5.83;;;4.60;;
20230;SDS011;10274;49.022;9.338;2023-03-01T09:58:25;5.27;;;3.93;;
20230;SDS011;10274;49.022;9.338;2023-03-01T10:01:02;5.57;;;4.43;;
20230;SDS011;10274;49.022;9.338;2023-03-01T10:03:39;5.20;;;4.20;;
20230;SDS011;10274;49.022;9.338;2023-03-01T10:06:10;6.03;;;3.53;;
20230;SDS011;10274;49.022;9.338;2023-03-01T10:08:42;8.43;;;4.23;;
20230;SDS011;10274;49.022;9.338;2023-03-01T10:11:17;5.07;;;3.73;;
20230;SDS011;10274;49.022;9.338;2023-03-01T10:13:49;4.93;;;3.27;;
20230;SDS011;10274;49.022;9.338;2023-03-01T10:16:21;7.33;;;4.40;;
20230;SDS011;10274;49.022;9.338;2023-03-01T10:18:53;5.43;;;4.40;;
20230;SDS011;10274;49.022;9.338;2023-03-01T10:21:25;8.17;;;4.67;;
20230;SDS011;10274;49.022;9.338;2023-03-01T10:23:54;4.43;;;3.87;;
20230;SDS011;10274;49.022;9.338;2023-03-01T10:26:30;7.40;;;5.10;;
20230;SDS011;10274;49.022;9.338;2023-03-01T10:29:06;6.77;;;4.07;;
20230;SDS011;10274;49.022;9.338;2023-03-01T10:31:37;6.40;;;4.40;;
20230;SDS011;10274;49.022;9.338;2023-03-01T10:34:09;4.63;;;4.03;;
20230;SDS011;10274;49.022;9.338;2023-03-01T10:36:38;6.37;;;4.50;;
20230;SDS011;10274;49.022;9.338;2023-03-01T10:39:10;5.47;;;3.93;;
20230;SDS011;10274;49.022;9.338;2023-03-01T10:41:44;6.33;;;4.47;;
20230;SDS011;10274;49.022;9.338;2023-03-01T10:44:34;4.87;;;3.90;;
20230;SDS011;10274;49.022;9.338;2023-03-01T10:47:12;5.93;;;4.20;;
20230;SDS011;10274;49.022;9.338;2023-03-01T10:49:53;6.57;;;4.67;;
20230;SDS011;10274;49.022;9.338;2023-03-01T10:52:22;7.67;;;4.53;;
20230;SDS011;10274;49.022;9.338;2023-03-01T10:54:51;5.80;;;4.53;;
20230;SDS011;10274;49.022;9.338;2023-03-01T10:57:32;5.80;;;3.97;;
20230;SDS011;10274;49.022;9.338;2023-03-01T11:00:17;5.57;;;4.23;;
20230;SDS011;10274;49.022;9.338;2023-03-01T11:02:49;4.73;;;4.07;;
20230;SDS011;10274;49.022;9.338;2023-03-01T11:05:28;5.23;;;4.03;;
20230;SDS011;10274;49.022;9.338;2023-03-01T11:07:58;6.60;;;4.17;;
20230;SDS011;10274;49.022;9.338;2023-03-01T11:10:27;4.47;;;3.90;;
20230;SDS011;10274;49.022;9.338;2023-03-01T11:13:05;5.83;;;3.83;;
20230;SDS011;10274;49.022;9.338;2023-03-01T11:15:33;6.37;;;4.03;;
20230;SDS011;10274;49.022;9.338;2023-03-01T11:18:00;5.87;;;4.47;;
20230;SDS011;10274;49.022;9.338;2023-03-01T11:20:29;6.80;;;4.53;;
20230;SDS011;10274;49.022;9.338;2023-03-01T11:22:59;6.27;;;4.10;;
20230;SDS011;10274;49.022;9.338;2023-03-01T11:25:31;5.43;;;3.97;;
20230;SDS011;10274;49.022;9.338;2023-03-01T11:28:02;6.33;;;4.40;;
20230;SDS011;10274;49.022;9.338;2023-03-01T11:30:31;5.37;;;3.87;;
20230;SDS011;10274;49.022;9.338;2023-03-01T11:33:04;5.13;;;3.80;;
20230;SDS011;10274;49.022;9.338;2023-03-01T11:35:42;5.73;;;3.87;;
20230;SDS011;10274;49.022;9.338;2023-03-01T11:38:19;4.67;;;4.00;;
20230;SDS011;10274;49.022;9.338;2023-03-01T11:40:49;4.63;;;4.00;;
20230;SDS011;10274;49.022;9.338;2023-03-01T11:43:26;6.57;;;4.90;;
20230;SDS011;10274;49.022;9.338;2023-03-01T11:46:00;5.17;;;4.50;;
20230;SDS011;10274;49.022;9.338;2023-03-01T11:48:50;7.13;;;4.83;;
20230;SDS011;10274;49.022;9.338;2023-03-01T11:51:30;6.20;;;4.50;;
20230;SDS011;10274;49.022;9.338;2023-03-01T11:54:10;6.63;;;4.83;;
20230;SDS011;10274;49.022;9.338;2023-03-01T11:56:45;5.40;;;4.27;;
20230;SDS011;10274;49.022;9.338;2023-03-01T12:05:20;5.17;;;4.53;;
20230;SDS011;10274;49.022;9.338;2023-03-01T12:08:01;6.20;;;4.30;;
20230;SDS011;10274;49.022;9.338;2023-03-01T12:10:34;5.37;;;4.47;;
20230;SDS011;10274;49.022;9.338;2023-03-01T12:13:12;6.57;;;4.67;;
20230;SDS011;10274;49.022;9.338;2023-03-01T12:15:54;5.37;;;4.23;;
20230;SDS011;10274;49.022;9.338;2023-03-01T12:18:39;5.13;;;4.17;;
20230;SDS011;10274;49.022;9.338;2023-03-01T12:21:36;6.03;;;4.33;;
20230;SDS011;10274;49.022;9.338;2023-03-01T12:27:09;5.50;;;3.70;;
20230;SDS011;10274;49.022;9.338;2023-03-01T12:29:47;6.23;;;4.40;;
20230;SDS011;10274;49.022;9.338;2023-03-01T12:32:22;5.47;;;4.27;;
20230;SDS011;10274;49.022;9.338;2023-03-01T12:35:02;6.20;;;4.23;;
20230;SDS011;10274;49.022;9.338;2023-03-01T12:37:47;5.63;;;4.10;;
20230;SDS011;10274;49.022;9.338;2023-03-01T12:40:36;4.53;;;3.93;;
20230;SDS011;10274;49.022;9.338;2023-03-01T12:43:31;6.70;;;3.60;;
20230;SDS011;10274;49.022;9.338;2023-03-01T12:46:08;5.87;;;4.27;;
20230;SDS011;10274;49.022;9.338;2023-03-01T12:48:43;6.03;;;3.97;;
20230;SDS011;10274;49.022;9.338;2023-03-01T12:51:17;5.17;;;4.17;;
20230;SDS011;10274;49.022;9.338;2023-03-01T12:53:49;6.10;;;4.47;;
20230;SDS011;10274;49.022;9.338;2023-03-01T12:56:19;6.53;;;4.33;;
20230;SDS011;10274;49.022;9.338;2023-03-01T12:58:51;6.87;;;4.10;;
20230;SDS011;10274;49.022;9.338;2023-03-01T13:01:28;5.70;;;4.20;;
20230;SDS011;10274;49.022;9.338;2023-03-01T13:04:11;4.87;;;3.87;;
20230;SDS011;10274;49.022;9.338;2023-03-01T13:06:44;6.97;;;4.47;;
20230;SDS011;10274;49.022;9.338;2023-03-01T13:09:22;6.50;;;3.93;;
20230;SDS011;10274;49.022;9.338;2023-03-01T13:11:56;5.97;;;3.70;;
20230;SDS011;10274;49.022;9.338;2023-03-01T13:14:36;6.10;;;3.77;;
20230;SDS011;10274;49.022;9.338;2023-03-01T13:19:56;9.83;;;5.93;;
20230;SDS011;10274;49.022;9.338;2023-03-01T13:22:29;5.13;;;3.33;;
20230;SDS011;10274;49.022;9.338;2023-03-01T13:25:01;6.83;;;4.37;;
20230;SDS011;10274;49.022;9.338;2023-03-01T13:27:38;4.90;;;3.97;;
20230;SDS011;10274;49.022;9.338;2023-03-01T13:30:12;5.47;;;4.50;;
20230;SDS011;10274;49.022;9.338;2023-03-01T13:33:33;5.70;;;4.33;;
20230;SDS011;10274;49.022;9.338;2023-03-01T13:36:05;6.47;;;4.40;;
20230;SDS011;10274;49.022;9.338;2023-03-01T13:38:36;7.17;;;4.13;;
20230;SDS011;10274;49.022;9.338;2023-03-01T13:41:06;5.17;;;4.10;;
20230;SDS011;10274;49.022;9.338;2023-03-01T13:43:35;7.17;;;4.47;;
20230;SDS011;10274;49.022;9.338;2023-03-01T13:46:07;6.27;;;4.00;;
20230;SDS011;10274;49.022;9.338;2023-03-01T13:48:36;8.03;;;5.10;;
20230;SDS011;10274;49.022;9.338;2023-03-01T13:51:05;4.77;;;4.07;;
20230;SDS011;10274;49.022;9.338;2023-03-01T13:53:35;5.93;;;4.43;;
20230;SDS011;10274;49.022;9.338;2023-03-01T13:56:06;4.87;;;4.23;;
20230;SDS011;10274;49.022;9.338;2023-03-01T13:58:46;6.90;;;4.50;;
20230;SDS011;10274;49.022;9.338;2023-03-01T14:01:21;7.20;;;4.73;;
20230;SDS011;10274;49.022;9.338;2023-03-01T14:03:50;7.70;;;5.40;;
20230;SDS011;10274;49.022;9.338;2023-03-01T14:06:18;5.30;;;4.27;;
20230;SDS011;10274;49.022;9.338;2023-03-01T14:08:48;4.97;;;4.17;;
20230;SDS011;10274;49.022;9.338;2023-03-01T14:14:55;7.90;;;4.73;;
20230;SDS011;10274;49.022;9.338;2023-03-01T14:20:38;5.50;;;4.37;;
20230;SDS011;10274;49.022;9.338;2023-03-01T14:23:09;4.87;;;4.33;;
20230;SDS011;10274;49.022;9.338;2023-03-01T14:25:38;6.57;;;4.73;;
20230;SDS011;10274;49.022;9.338;2023-03-01T14:28:14;5.93;;;4.97;;
20230;SDS011;10274;49.022;9.338;2023-03-01T14:30:45;5.93;;;5.20;;
20230;SDS011;10274;49.022;9.338;2023-03-01T14:33:20;7.60;;;4.67;;
20230;SDS011;10274;49.022;9.338;2023-03-01T14:35:52;7.47;;;4.43;;
20230;SDS011;10274;49.022;9.338;2023-03-01T14:38:21;5.37;;;4.60;;
20230;SDS011;10274;49.022;9.338;2023-03-01T14:40:50;7.83;;;4.47;;
20230;SDS011;10274;49.022;9.338;2023-03-01T14:43:22;6.77;;;4.50;;
20230;SDS011;10274;49.022;9.338;2023-03-01T14:45:52;6.70;;;4.80;;
20230;SDS011;10274;49.022;9.338;2023-03-01T14:48:18;6.30;;;4.50;;
20230;SDS011;10274;49.022;9.338;2023-03-01T14:50:45;7.57;;;4.87;;
20230;SDS011;10274;49.022;9.338;2023-03-01T14:53:15;6.03;;;4.97;;
20230;SDS011;10274;49.022;9.338;2023-03-01T14:55:46;7.80;;;5.07;;
20230;SDS011;10274;49.022;9.338;2023-03-01T14:58:18;7.70;;;4.57;;
20230;SDS011;10274;49.022;9.338;2023-03-01T15:00:47;9.17;;;4.40;;
20230;SDS011;10274;49.022;9.338;2023-03-01T15:03:20;5.23;;;3.50;;
20230;SDS011;10274;49.022;9.338;2023-03-01T15:05:51;4.87;;;4.23;;
20230;SDS011;10274;49.022;9.338;2023-03-01T15:08:20;6.27;;;4.87;;
20230;SDS011;10274;49.022;9.338;2023-03-01T15:10:56;6.23;;;4.33;;
20230;SDS011;10274;49.022;9.338;2023-03-01T15:13:26;6.63;;;4.30;;
20230;SDS011;10274;49.022;9.338;2023-03-01T15:16:00;6.03;;;3.80;;
20230;SDS011;10274;49.022;9.338;2023-03-01T15:18:32;6.63;;;4.37;;
20230;SDS011;10274;49.022;9.338;2023-03-01T15:21:06;5.97;;;4.37;;
20230;SDS011;10274;49.022;9.338;2023-03-01T15:23:36;5.83;;;4.33;;